BLKCAT5 KNKT-KNKT
Flight info
| Callsign | BLKCAT5 |
|---|---|
| Flight time | 0h 49m |
| Altitude | 10000 |
| Route | VFR |
| Aircraft | Q4/M-VGDW/C |
Departure
| Time | 2026-04-28 21:03 |
|---|---|
| Airport | Cherry Point MCAS / Cunningham Field/ (KNKT) |
Arrival
| Time | 2026-04-28 21:53 |
|---|---|
| Airport | Cherry Point MCAS / Cunningham Field/ (KNKT) |
| Time | Latitude | Longitude | Altitude | Speed | Heading |
|---|---|---|---|---|---|
| 2026-04-28 20:54 | 34.90795 | -76.86603 | 30 ft | 0 kts | 182° |
| 2026-04-28 20:59 | 34.90786 | -76.86739 | 30 ft | 33 kts | 276° |
| 2026-04-28 21:00 | 34.90810 | -76.87034 | 30 ft | 37 kts | 278° |
| 2026-04-28 21:00 | 34.90815 | -76.87408 | 30 ft | 70 kts | 271° |
| 2026-04-28 21:00 | 34.90818 | -76.87944 | 32 ft | 48 kts | 270° |
| 2026-04-28 21:00 | 34.90627 | -76.88106 | 33 ft | 23 kts | 180° |
| 2026-04-28 21:01 | 34.90561 | -76.88104 | 33 ft | 0 kts | 182° |
| 2026-04-28 21:01 | 34.90556 | -76.88104 | 33 ft | 3 kts | 184° |
| 2026-04-28 21:01 | 34.90496 | -76.88106 | 33 ft | 7 kts | 183° |
| 2026-04-28 21:01 | 34.90404 | -76.88111 | 32 ft | 19 kts | 151° |
| 2026-04-28 21:02 | 34.90389 | -76.88048 | 32 ft | 1 kts | 47° |
| 2026-04-28 21:02 | 34.90394 | -76.88041 | 32 ft | 0 kts | 47° |
| 2026-04-28 21:03 | 34.90626 | -76.87751 | 45 ft | 154 kts | 46° |
| 2026-04-28 21:03 | 34.91219 | -76.87006 | 2854 ft | 54 kts | 45° |
| 2026-04-28 21:03 | 34.91727 | -76.86332 | 5862 ft | 182 kts | 40° |
| 2026-04-28 21:04 | 34.92733 | -76.85110 | 6406 ft | 185 kts | 40° |
| 2026-04-28 21:04 | 34.93517 | -76.84093 | 6596 ft | 151 kts | 40° |
| 2026-04-28 21:04 | 34.94200 | -76.83193 | 4686 ft | 222 kts | 40° |
| 2026-04-28 21:04 | 34.94717 | -76.80884 | 4082 ft | 320 kts | 126° |
| 2026-04-28 21:05 | 34.92681 | -76.80702 | 4079 ft | 311 kts | 206° |
| 2026-04-28 21:05 | 34.90831 | -76.81729 | 3373 ft | 241 kts | 206° |
| 2026-04-28 21:05 | 34.89844 | -76.81438 | 3141 ft | 151 kts | 72° |
| 2026-04-28 21:05 | 34.90336 | -76.81712 | 2831 ft | 121 kts | 250° |
| 2026-04-28 21:06 | 34.89601 | -76.82419 | 2166 ft | 151 kts | 218° |
| 2026-04-28 21:06 | 34.88704 | -76.83295 | 1661 ft | 191 kts | 220° |
| 2026-04-28 21:06 | 34.87352 | -76.84644 | 1920 ft | 296 kts | 220° |
| 2026-04-28 21:06 | 34.85691 | -76.86354 | 2226 ft | 320 kts | 221° |
| 2026-04-28 21:07 | 34.83961 | -76.88178 | 2064 ft | 333 kts | 221° |
| 2026-04-28 21:07 | 34.82282 | -76.90062 | 1861 ft | 332 kts | 229° |
| 2026-04-28 21:07 | 34.81379 | -76.92525 | 1622 ft | 326 kts | 265° |
| 2026-04-28 21:07 | 34.82308 | -76.95004 | 851 ft | 342 kts | 324° |
| 2026-04-28 21:08 | 34.84496 | -76.95360 | 978 ft | 329 kts | 25° |
| 2026-04-28 21:08 | 34.85912 | -76.93456 | 685 ft | 295 kts | 52° |
| 2026-04-28 21:08 | 34.87394 | -76.91531 | 846 ft | 324 kts | 46° |
| 2026-04-28 21:08 | 34.88988 | -76.89518 | 1073 ft | 333 kts | 46° |
| 2026-04-28 21:09 | 34.89717 | -76.87710 | 1112 ft | 183 kts | 158° |
| 2026-04-28 21:09 | 34.88934 | -76.88283 | 704 ft | 111 kts | 236° |
| 2026-04-28 21:09 | 34.88522 | -76.88964 | 578 ft | 94 kts | 226° |
| 2026-04-28 21:09 | 34.88035 | -76.89428 | 536 ft | 80 kts | 219° |
| 2026-04-28 21:10 | 34.87942 | -76.90151 | 274 ft | 112 kts | 279° |
| 2026-04-28 21:10 | 34.88547 | -76.90271 | 183 ft | 101 kts | 55° |
| 2026-04-28 21:10 | 34.88928 | -76.89635 | 59 ft | 83 kts | 42° |
| 2026-04-28 21:10 | 34.89290 | -76.89169 | 43 ft | 70 kts | 41° |
| 2026-04-28 21:11 | 34.89616 | -76.88770 | 32 ft | 63 kts | 49° |
| 2026-04-28 21:11 | 34.90019 | -76.88264 | 47 ft | 159 kts | 46° |
| 2026-04-28 21:11 | 34.91098 | -76.86908 | 750 ft | 263 kts | 46° |
| 2026-04-28 21:11 | 34.92301 | -76.85382 | 1530 ft | 199 kts | 46° |
| 2026-04-28 21:12 | 34.93120 | -76.84307 | 1746 ft | 158 kts | 46° |
| 2026-04-28 21:12 | 34.93845 | -76.83376 | 1877 ft | 149 kts | 45° |
| 2026-04-28 21:12 | 34.94640 | -76.82330 | 1954 ft | 184 kts | 46° |
| 2026-04-28 21:12 | 34.95546 | -76.81148 | 1985 ft | 198 kts | 46° |
| 2026-04-28 21:13 | 34.96243 | -76.79719 | 1906 ft | 202 kts | 76° |
| 2026-04-28 21:13 | 34.96005 | -76.78063 | 1869 ft | 203 kts | 118° |
| 2026-04-28 21:13 | 34.94935 | -76.77015 | 1870 ft | 200 kts | 162° |
| 2026-04-28 21:13 | 34.93586 | -76.77120 | 1892 ft | 193 kts | 201° |
| 2026-04-28 21:14 | 34.92305 | -76.77501 | 1830 ft | 195 kts | 183° |
| 2026-04-28 21:14 | 34.91147 | -76.76919 | 1766 ft | 170 kts | 148° |
| 2026-04-28 21:14 | 34.90398 | -76.75895 | 1781 ft | 167 kts | 138° |
| 2026-04-28 21:14 | 34.89558 | -76.74769 | 1845 ft | 190 kts | 134° |
| 2026-04-28 21:15 | 34.88669 | -76.73524 | 1923 ft | 198 kts | 134° |
| 2026-04-28 21:15 | 34.87761 | -76.72227 | 1958 ft | 203 kts | 132° |
| 2026-04-28 21:15 | 34.86829 | -76.70937 | 2000 ft | 200 kts | 135° |
| 2026-04-28 21:15 | 34.85573 | -76.70291 | 1889 ft | 201 kts | 176° |
| 2026-04-28 21:16 | 34.84269 | -76.70777 | 1888 ft | 196 kts | 213° |
| 2026-04-28 21:16 | 34.83174 | -76.71734 | 1960 ft | 194 kts | 216° |
| 2026-04-28 21:16 | 34.82076 | -76.72713 | 1985 ft | 197 kts | 219° |
| 2026-04-28 21:16 | 34.80985 | -76.73739 | 1995 ft | 199 kts | 219° |
| 2026-04-28 21:17 | 34.79915 | -76.74767 | 2002 ft | 199 kts | 220° |
| 2026-04-28 21:17 | 34.79141 | -76.75494 | 2007 ft | 99 kts | 221° |
| 2026-04-28 21:17 | 34.78672 | -76.75900 | 1995 ft | 71 kts | 219° |
| 2026-04-28 21:17 | 34.78312 | -76.76224 | 1978 ft | 60 kts | 219° |
| 2026-04-28 21:18 | 34.77986 | -76.76487 | 1946 ft | 53 kts | 221° |
| 2026-04-28 21:18 | 34.77744 | -76.76764 | 1977 ft | 36 kts | 232° |
| 2026-04-28 21:18 | 34.77812 | -76.77584 | 925 ft | 178 kts | 269° |
| 2026-04-28 21:18 | 34.77101 | -76.78655 | 1036 ft | 125 kts | 216° |
| 2026-04-28 21:19 | 34.76535 | -76.79232 | 1161 ft | 91 kts | 218° |
| 2026-04-28 21:19 | 34.76049 | -76.79691 | 1264 ft | 86 kts | 220° |
| 2026-04-28 21:19 | 34.75569 | -76.80103 | 1385 ft | 91 kts | 216° |
| 2026-04-28 21:19 | 34.75086 | -76.80591 | 1469 ft | 86 kts | 229° |
| 2026-04-28 21:20 | 34.74586 | -76.81042 | 1487 ft | 92 kts | 220° |
| 2026-04-28 21:20 | 34.73820 | -76.81760 | 1576 ft | 197 kts | 219° |
| 2026-04-28 21:20 | 34.72647 | -76.82879 | 1783 ft | 219 kts | 220° |
| 2026-04-28 21:20 | 34.71434 | -76.84005 | 1918 ft | 227 kts | 218° |
| 2026-04-28 21:21 | 34.69889 | -76.85475 | 1975 ft | 315 kts | 219° |
| 2026-04-28 21:21 | 34.68121 | -76.87203 | 2017 ft | 330 kts | 220° |
| 2026-04-28 21:21 | 34.66311 | -76.88946 | 2017 ft | 332 kts | 219° |
| 2026-04-28 21:21 | 34.64562 | -76.90750 | 1979 ft | 326 kts | 225° |
| 2026-04-28 21:22 | 34.63453 | -76.93028 | 1938 ft | 328 kts | 251° |
| 2026-04-28 21:22 | 34.63240 | -76.95772 | 1918 ft | 329 kts | 276° |
| 2026-04-28 21:22 | 34.64040 | -76.98354 | 1919 ft | 328 kts | 301° |
| 2026-04-28 21:22 | 34.64933 | -76.99816 | 1947 ft | 324 kts | 309° |
| 2026-04-28 21:23 | 34.66875 | -77.02619 | 1998 ft | 330 kts | 313° |
| 2026-04-28 21:23 | 34.68455 | -77.04656 | 1973 ft | 331 kts | 314° |
| 2026-04-28 21:23 | 34.70037 | -77.06689 | 2012 ft | 331 kts | 314° |
| 2026-04-28 21:23 | 34.71440 | -77.07985 | 2003 ft | 187 kts | 339° |
| 2026-04-28 21:24 | 34.72498 | -77.07865 | 1972 ft | 133 kts | 18° |
| 2026-04-28 21:24 | 34.73335 | -77.07331 | 2071 ft | 204 kts | 25° |
| 2026-04-28 21:24 | 34.74636 | -77.06530 | 2029 ft | 184 kts | 26° |
| 2026-04-28 21:24 | 34.75659 | -77.05755 | 1778 ft | 166 kts | 31° |
| 2026-04-28 21:25 | 34.76564 | -77.04933 | 1538 ft | 159 kts | 41° |
| 2026-04-28 21:25 | 34.77342 | -77.04027 | 1474 ft | 149 kts | 44° |
| 2026-04-28 21:25 | 34.77994 | -77.03213 | 1922 ft | 112 kts | 44° |
| 2026-04-28 21:25 | 34.78543 | -77.02471 | 1989 ft | 124 kts | 47° |
| 2026-04-28 21:26 | 34.79132 | -77.01651 | 2063 ft | 131 kts | 47° |
| 2026-04-28 21:26 | 34.79769 | -77.00811 | 2053 ft | 137 kts | 45° |
| 2026-04-28 21:26 | 34.80216 | -77.00258 | 2027 ft | 140 kts | 42° |
| 2026-04-28 21:26 | 34.80920 | -76.99440 | 2049 ft | 140 kts | 42° |
| 2026-04-28 21:27 | 34.81812 | -76.98307 | 2022 ft | 141 kts | 45° |
| 2026-04-28 21:27 | 34.82519 | -76.97419 | 1837 ft | 150 kts | 43° |
| 2026-04-28 21:27 | 34.83277 | -76.96544 | 1707 ft | 149 kts | 41° |
| 2026-04-28 21:27 | 34.84017 | -76.95617 | 1454 ft | 156 kts | 45° |
| 2026-04-28 21:28 | 34.84542 | -76.95029 | 1294 ft | 154 kts | 39° |
| 2026-04-28 21:28 | 34.85327 | -76.94133 | 1054 ft | 154 kts | 44° |
| 2026-04-28 21:28 | 34.86074 | -76.93205 | 838 ft | 147 kts | 45° |
| 2026-04-28 21:28 | 34.86708 | -76.92403 | 671 ft | 121 kts | 46° |
| 2026-04-28 21:29 | 34.87273 | -76.91684 | 536 ft | 117 kts | 46° |
| 2026-04-28 21:29 | 34.87822 | -76.90978 | 367 ft | 113 kts | 45° |
| 2026-04-28 21:29 | 34.88344 | -76.90341 | 253 ft | 100 kts | 45° |
| 2026-04-28 21:29 | 34.88814 | -76.89757 | 120 ft | 89 kts | 44° |
| 2026-04-28 21:30 | 34.89221 | -76.89254 | 40 ft | 78 kts | 45° |
| 2026-04-28 21:30 | 34.89573 | -76.88821 | 32 ft | 67 kts | 44° |
| 2026-04-28 21:30 | 34.89963 | -76.88345 | 51 ft | 143 kts | 45° |
| 2026-04-28 21:30 | 34.90669 | -76.87442 | 2116 ft | 216 kts | 46° |
| 2026-04-28 21:31 | 34.91677 | -76.86124 | 2501 ft | 171 kts | 46° |
| 2026-04-28 21:31 | 34.92394 | -76.85152 | 2719 ft | 146 kts | 47° |
| 2026-04-28 21:31 | 34.93048 | -76.84197 | 2683 ft | 163 kts | 49° |
| 2026-04-28 21:31 | 34.94117 | -76.82657 | 2677 ft | 298 kts | 49° |
| 2026-04-28 21:32 | 34.95584 | -76.80610 | 2765 ft | 332 kts | 48° |
| 2026-04-28 21:32 | 34.97097 | -76.78484 | 2868 ft | 338 kts | 49° |
| 2026-04-28 21:32 | 34.98568 | -76.76387 | 3596 ft | 228 kts | 30° |
| 2026-04-28 21:32 | 34.99677 | -76.75061 | 4058 ft | 256 kts | 51° |
| 2026-04-28 21:33 | 35.00884 | -76.73166 | 4043 ft | 287 kts | 50° |
| 2026-04-28 21:33 | 35.02253 | -76.71094 | 3958 ft | 331 kts | 49° |
| 2026-04-28 21:33 | 35.03730 | -76.68885 | 3939 ft | 338 kts | 49° |
| 2026-04-28 21:33 | 35.05191 | -76.66697 | 4130 ft | 335 kts | 49° |
| 2026-04-28 21:34 | 35.06838 | -76.64838 | 3892 ft | 327 kts | 37° |
| 2026-04-28 21:34 | 35.08662 | -76.63079 | 3565 ft | 340 kts | 37° |
| 2026-04-28 21:34 | 35.10521 | -76.61290 | 3581 ft | 339 kts | 37° |
| 2026-04-28 21:34 | 35.12377 | -76.59514 | 3608 ft | 336 kts | 37° |
| 2026-04-28 21:35 | 35.14201 | -76.57760 | 3901 ft | 333 kts | 37° |
| 2026-04-28 21:35 | 35.16018 | -76.55999 | 4226 ft | 332 kts | 36° |
| 2026-04-28 21:35 | 35.17796 | -76.54268 | 4747 ft | 327 kts | 36° |
| 2026-04-28 21:35 | 35.19543 | -76.52553 | 5447 ft | 325 kts | 36° |
| 2026-04-28 21:36 | 35.21289 | -76.50771 | 5513 ft | 311 kts | 38° |
| 2026-04-28 21:36 | 35.23146 | -76.49444 | 5494 ft | 317 kts | 17° |
| 2026-04-28 21:36 | 35.25374 | -76.49019 | 4930 ft | 334 kts | 354° |
| 2026-04-28 21:36 | 35.27582 | -76.49267 | 2395 ft | 355 kts | 353° |
| 2026-04-28 21:37 | 35.29891 | -76.49369 | 1354 ft | 306 kts | 358° |
| 2026-04-28 21:37 | 35.30612 | -76.48188 | 2279 ft | 281 kts | 182° |
| 2026-04-28 21:37 | 35.29204 | -76.49918 | 1804 ft | 313 kts | 230° |
| 2026-04-28 21:37 | 35.27765 | -76.51980 | 1937 ft | 328 kts | 230° |
| 2026-04-28 21:38 | 35.24833 | -76.55879 | 2259 ft | 329 kts | 227° |
| 2026-04-28 21:38 | 35.22335 | -76.59047 | 2156 ft | 332 kts | 226° |
| 2026-04-28 21:38 | 35.20753 | -76.61066 | 2349 ft | 324 kts | 227° |
| 2026-04-28 21:38 | 35.17533 | -76.64321 | 1823 ft | 333 kts | 218° |
| 2026-04-28 21:39 | 35.15735 | -76.66010 | 2477 ft | 312 kts | 218° |
| 2026-04-28 21:39 | 35.14091 | -76.67777 | 2954 ft | 322 kts | 224° |
| 2026-04-28 21:39 | 35.11839 | -76.70677 | 3133 ft | 327 kts | 229° |
| 2026-04-28 21:39 | 35.10164 | -76.73035 | 3132 ft | 315 kts | 229° |
| 2026-04-28 21:40 | 35.08705 | -76.75130 | 3130 ft | 315 kts | 231° |
| 2026-04-28 21:40 | 35.07400 | -76.77060 | 3035 ft | 287 kts | 233° |
| 2026-04-28 21:40 | 35.05954 | -76.78966 | 3020 ft | 309 kts | 231° |
| 2026-04-28 21:40 | 35.04672 | -76.80982 | 3197 ft | 257 kts | 240° |
| 2026-04-28 21:41 | 35.03542 | -76.82742 | 3544 ft | 141 kts | 233° |
| 2026-04-28 21:41 | 35.04067 | -76.81664 | 6848 ft | 222 kts | 58° |
| 2026-04-28 21:41 | 35.04930 | -76.79637 | 7569 ft | 301 kts | 64° |
| 2026-04-28 21:41 | 35.04620 | -76.77577 | 8217 ft | 292 kts | 172° |
| 2026-04-28 21:42 | 35.02499 | -76.77359 | 8546 ft | 326 kts | 180° |
| 2026-04-28 21:42 | 35.00160 | -76.77222 | 8613 ft | 344 kts | 181° |
| 2026-04-28 21:42 | 34.97727 | -76.77128 | 8127 ft | 355 kts | 181° |
| 2026-04-28 21:42 | 34.95233 | -76.77102 | 7465 ft | 359 kts | 182° |
| 2026-04-28 21:43 | 34.92766 | -76.77158 | 6932 ft | 343 kts | 185° |
| 2026-04-28 21:43 | 34.90427 | -76.77971 | 4706 ft | 359 kts | 209° |
| 2026-04-28 21:43 | 34.88894 | -76.80170 | 3481 ft | 340 kts | 238° |
| 2026-04-28 21:43 | 34.87699 | -76.82639 | 2963 ft | 329 kts | 246° |
| 2026-04-28 21:44 | 34.87292 | -76.85371 | 2836 ft | 325 kts | 273° |
| 2026-04-28 21:44 | 34.87971 | -76.87929 | 3025 ft | 322 kts | 308° |
| 2026-04-28 21:44 | 34.89936 | -76.89114 | 3268 ft | 323 kts | 349° |
| 2026-04-28 21:44 | 34.92099 | -76.88456 | 3210 ft | 336 kts | 34° |
| 2026-04-28 21:45 | 34.92041 | -76.86751 | 3728 ft | 299 kts | 215° |
| 2026-04-28 21:45 | 34.90633 | -76.88628 | 2960 ft | 287 kts | 230° |
| 2026-04-28 21:45 | 34.89018 | -76.90457 | 2574 ft | 307 kts | 170° |
| 2026-04-28 21:45 | 34.89458 | -76.90016 | 2685 ft | 293 kts | 251° |
| 2026-04-28 21:46 | 34.89323 | -76.89584 | 3060 ft | 275 kts | 306° |
| 2026-04-28 21:46 | 34.89066 | -76.89344 | 3272 ft | 281 kts | 354° |
| 2026-04-28 21:46 | 34.88680 | -76.89451 | 3051 ft | 299 kts | 52° |
| 2026-04-28 21:46 | 34.88593 | -76.90065 | 2532 ft | 313 kts | 132° |
| 2026-04-28 21:47 | 34.89206 | -76.90040 | 2562 ft | 298 kts | 221° |
| 2026-04-28 21:47 | 34.89313 | -76.89323 | 2476 ft | 300 kts | 303° |
| 2026-04-28 21:47 | 34.88726 | -76.89108 | 2492 ft | 303 kts | 29° |
| 2026-04-28 21:47 | 34.88467 | -76.90191 | 2773 ft | 288 kts | 194° |
| 2026-04-28 21:48 | 34.86379 | -76.90800 | 3018 ft | 327 kts | 195° |
| 2026-04-28 21:48 | 34.84260 | -76.91734 | 3497 ft | 325 kts | 208° |
| 2026-04-28 21:48 | 34.82630 | -76.93616 | 3774 ft | 323 kts | 238° |
| 2026-04-28 21:48 | 34.82000 | -76.96225 | 3792 ft | 324 kts | 270° |
| 2026-04-28 21:49 | 34.83220 | -76.97163 | 3202 ft | 261 kts | 37° |
| 2026-04-28 21:49 | 34.85032 | -76.95636 | 1632 ft | 345 kts | 32° |
| 2026-04-28 21:49 | 34.86805 | -76.94523 | 826 ft | 204 kts | 3° |
| 2026-04-28 21:49 | 34.87791 | -76.94923 | 561 ft | 110 kts | 319° |
| 2026-04-28 21:50 | 34.88424 | -76.95143 | 364 ft | 80 kts | 357° |
| 2026-04-28 21:50 | 34.88878 | -76.94233 | 534 ft | 185 kts | 102° |
| 2026-04-28 21:50 | 34.88188 | -76.94292 | 528 ft | 103 kts | 265° |
| 2026-04-28 21:50 | 34.87977 | -76.94761 | 121 ft | 74 kts | 189° |
| 2026-04-28 21:51 | 34.87565 | -76.94764 | 203 ft | 94 kts | 182° |
| 2026-04-28 21:51 | 34.87543 | -76.93848 | 987 ft | 231 kts | 2° |
| 2026-04-28 21:51 | 34.89482 | -76.94034 | 115 ft | 321 kts | 352° |
| 2026-04-28 21:51 | 34.91745 | -76.94365 | 134 ft | 319 kts | 353° |
| 2026-04-28 21:52 | 34.93713 | -76.94723 | 508 ft | 201 kts | 348° |
| 2026-04-28 21:52 | 34.94750 | -76.94738 | 845 ft | 116 kts | 13° |
| 2026-04-28 21:52 | 34.94715 | -76.94115 | 568 ft | 86 kts | 135° |
| 2026-04-28 21:52 | 34.94198 | -76.94117 | 166 ft | 74 kts | 213° |
| 2026-04-28 21:53 | 34.93823 | -76.94407 | 33 ft | 46 kts | 211° |
| 2026-04-28 21:53 | 34.93758 | -76.94455 | 34 ft | 0 kts | 207° |
| 2026-04-28 21:54 | 34.93200 | -76.94894 | 815 ft | 137 kts | 212° |
| 2026-04-28 21:54 | 34.91888 | -76.95896 | 1859 ft | 290 kts | 213° |
| 2026-04-28 21:54 | 34.90084 | -76.97282 | 2069 ft | 266 kts | 213° |
| 2026-04-28 21:55 | 34.88935 | -76.98184 | 2067 ft | 150 kts | 214° |
| 2026-04-28 21:55 | 34.88099 | -76.98853 | 2042 ft | 178 kts | 214° |
| 2026-04-28 21:55 | 34.87160 | -76.99594 | 2068 ft | 141 kts | 212° |
| 2026-04-28 21:55 | 34.86292 | -76.99854 | 1917 ft | 120 kts | 184° |
| 2026-04-28 21:56 | 34.85520 | -76.99582 | 1703 ft | 119 kts | 154° |
| 2026-04-28 21:56 | 34.84957 | -76.98960 | 1764 ft | 95 kts | 130° |
| 2026-04-28 21:56 | 34.84630 | -76.98298 | 1777 ft | 90 kts | 122° |
| 2026-04-28 21:56 | 34.84281 | -76.97758 | 1875 ft | 70 kts | 134° |
| 2026-04-28 21:57 | 34.84183 | -76.97110 | 1751 ft | 87 kts | 84° |
| 2026-04-28 21:57 | 34.84565 | -76.96503 | 1627 ft | 95 kts | 44° |
| 2026-04-28 21:57 | 34.84916 | -76.95808 | 1478 ft | 98 kts | 54° |
| 2026-04-28 21:57 | 34.85292 | -76.95103 | 1362 ft | 99 kts | 56° |
| 2026-04-28 21:58 | 34.85655 | -76.94435 | 1360 ft | 89 kts | 54° |
| 2026-04-28 21:58 | 34.86002 | -76.93872 | 1380 ft | 80 kts | 50° |
| 2026-04-28 21:58 | 34.86365 | -76.93308 | 1286 ft | 89 kts | 51° |
| 2026-04-28 21:58 | 34.86762 | -76.92737 | 1233 ft | 92 kts | 47° |
| 2026-04-28 21:59 | 34.87184 | -76.92128 | 1153 ft | 96 kts | 49° |
| 2026-04-28 21:59 | 34.87582 | -76.91562 | 1062 ft | 80 kts | 48° |
| 2026-04-28 21:59 | 34.87946 | -76.91106 | 1003 ft | 72 kts | 45° |
| 2026-04-28 22:00 | 34.88631 | -76.90217 | 864 ft | 71 kts | 44° |
| 2026-04-28 22:00 | 34.88966 | -76.89790 | 758 ft | 66 kts | 44° |
| 2026-04-28 22:00 | 34.89290 | -76.89415 | 673 ft | 64 kts | 43° |
| 2026-04-28 22:00 | 34.89621 | -76.88997 | 486 ft | 73 kts | 48° |
| 2026-04-28 22:01 | 34.89979 | -76.88549 | 321 ft | 69 kts | 46° |
| 2026-04-28 22:01 | 34.90324 | -76.88123 | 116 ft | 75 kts | 44° |
| 2026-04-28 22:01 | 34.90664 | -76.87703 | 34 ft | 61 kts | 45° |
| 2026-04-28 22:01 | 34.90808 | -76.87526 | 29 ft | 0 kts | 47° |
| 2026-04-28 22:03 | 34.91081 | -76.87214 | 68 ft | 159 kts | 45° |
| 2026-04-28 22:03 | 34.91936 | -76.87317 | 705 ft | 231 kts | 252° |
| 2026-04-28 22:03 | 34.90764 | -76.89028 | 936 ft | 304 kts | 227° |
| 2026-04-28 22:04 | 34.89334 | -76.90900 | 1242 ft | 236 kts | 227° |
| 2026-04-28 22:04 | 34.88491 | -76.91258 | 1085 ft | 119 kts | 135° |
| 2026-04-28 22:04 | 34.88455 | -76.90455 | 915 ft | 99 kts | 66° |
| 2026-04-28 22:04 | 34.88907 | -76.89914 | 688 ft | 86 kts | 41° |
| 2026-04-28 22:05 | 34.89296 | -76.89439 | 615 ft | 72 kts | 46° |
| 2026-04-28 22:05 | 34.89622 | -76.88977 | 476 ft | 88 kts | 50° |
| 2026-04-28 22:05 | 34.90341 | -76.88117 | 113 ft | 121 kts | 44° |
| 2026-04-28 22:05 | 34.90778 | -76.87572 | 54 ft | 87 kts | 47° |
| 2026-04-28 22:06 | 34.91737 | -76.87335 | 668 ft | 210 kts | 337° |
| 2026-04-28 22:06 | 34.92480 | -76.85838 | 1293 ft | 267 kts | 81° |
| 2026-04-28 22:06 | 34.91443 | -76.84976 | 1557 ft | 286 kts | 219° |
| 2026-04-28 22:06 | 34.89924 | -76.86855 | 1139 ft | 322 kts | 226° |
| 2026-04-28 22:07 | 34.88858 | -76.88124 | 907 ft | 135 kts | 224° |
| 2026-04-28 22:07 | 34.88248 | -76.88860 | 766 ft | 113 kts | 225° |
| 2026-04-28 22:07 | 34.87727 | -76.89503 | 727 ft | 98 kts | 226° |
| 2026-04-28 22:07 | 34.87276 | -76.90074 | 865 ft | 94 kts | 227° |
| 2026-04-28 22:08 | 34.87111 | -76.90788 | 639 ft | 136 kts | 289° |
| 2026-04-28 22:08 | 34.88337 | -76.91502 | 697 ft | 268 kts | 46° |
| 2026-04-28 22:08 | 34.89242 | -76.89464 | 240 ft | 286 kts | 45° |
| 2026-04-28 22:08 | 34.90275 | -76.88195 | 57 ft | 116 kts | 46° |
| 2026-04-28 22:09 | 34.90695 | -76.87675 | 43 ft | 62 kts | 45° |
| 2026-04-28 22:09 | 34.90951 | -76.87368 | 40 ft | 44 kts | 44° |
| 2026-04-28 22:09 | 34.91127 | -76.87139 | 30 ft | 28 kts | 73° |
| 2026-04-28 22:09 | 34.91218 | -76.87016 | 29 ft | 24 kts | 38° |
| 2026-04-28 22:10 | 34.91718 | -76.86413 | 63 ft | 168 kts | 45° |
| 2026-04-28 22:10 | 34.92258 | -76.85744 | 2552 ft | 124 kts | 44° |
| 2026-04-28 22:10 | 34.92999 | -76.84827 | 4905 ft | 163 kts | 41° |
| 2026-04-28 22:10 | 34.93763 | -76.83864 | 7546 ft | 153 kts | 39° |
| 2026-04-28 22:11 | 34.94568 | -76.82831 | 9692 ft | 198 kts | 39° |
| 2026-04-28 22:11 | 34.95738 | -76.81418 | 10243 ft | 280 kts | 39° |
| 2026-04-28 22:11 | 34.97259 | -76.79641 | 10920 ft | 311 kts | 39° |
| 2026-04-28 22:11 | 34.98833 | -76.77786 | 11648 ft | 330 kts | 40° |
| 2026-04-28 22:12 | 35.00547 | -76.75778 | 11566 ft | 343 kts | 40° |
| 2026-04-28 22:12 | 35.02108 | -76.73855 | 13111 ft | 220 kts | 46° |
| 2026-04-28 22:12 | 35.03415 | -76.71343 | 18852 ft | 215 kts | 53° |
| 2026-04-28 22:12 | 35.01744 | -76.62829 | 24357 ft | 311 kts | 120° |
| 2026-04-28 22:13 | 34.98942 | -76.56678 | 27011 ft | 326 kts | 122° |
| 2026-04-28 22:13 | 34.94234 | -76.46812 | 29795 ft | 338 kts | 124° |
| 2026-04-28 22:13 | 34.89545 | -76.37215 | 32945 ft | 325 kts | 126° |
| 2026-04-28 22:13 | 34.84550 | -76.27357 | 34542 ft | 344 kts | 127° |
| 2026-04-28 22:14 | 34.79440 | -76.17555 | 36367 ft | 342 kts | 128° |
| 2026-04-28 22:14 | 34.74261 | -76.07548 | 37456 ft | 356 kts | 124° |
| 2026-04-28 22:14 | 34.69188 | -75.97185 | 38547 ft | 357 kts | 124° |
| 2026-04-28 22:14 | 34.64041 | -75.86878 | 39514 ft | 355 kts | 124° |
| 2026-04-28 22:15 | 34.58876 | -75.76920 | 40444 ft | 348 kts | 125° |
| 2026-04-28 22:15 | 34.53655 | -75.67177 | 41449 ft | 341 kts | 125° |
| 2026-04-28 22:15 | 34.48425 | -75.57670 | 42501 ft | 335 kts | 125° |
| 2026-04-28 22:15 | 34.43208 | -75.48394 | 43609 ft | 330 kts | 125° |
| 2026-04-28 22:16 | 34.38010 | -75.39336 | 44784 ft | 325 kts | 125° |
| 2026-04-28 22:16 | 34.32840 | -75.30452 | 45786 ft | 321 kts | 125° |
| 2026-04-28 22:16 | 34.27566 | -75.21823 | 46723 ft | 315 kts | 144° |
| 2026-04-28 22:16 | 34.21497 | -75.24371 | 47704 ft | 245 kts | 255° |
| 2026-04-28 22:17 | 34.19214 | -75.31997 | 48710 ft | 239 kts | 258° |
| 2026-04-28 22:17 | 34.17102 | -75.39559 | 49419 ft | 246 kts | 258° |
| 2026-04-28 22:17 | 34.14165 | -75.50241 | 50071 ft | 256 kts | 259° |
| 2026-04-28 22:17 | 34.09703 | -75.66796 | 51046 ft | 260 kts | 259° |
| 2026-04-28 22:18 | 34.05320 | -75.83395 | 52018 ft | 259 kts | 259° |
| 2026-04-28 22:18 | 34.01000 | -75.99971 | 52999 ft | 258 kts | 259° |
| 2026-04-28 22:18 | 33.96766 | -76.16248 | 53964 ft | 257 kts | 259° |
| 2026-04-28 22:18 | 33.92513 | -76.32638 | 54928 ft | 255 kts | 259° |
| 2026-04-28 22:19 | 33.88275 | -76.48930 | 55903 ft | 254 kts | 259° |
| 2026-04-28 22:19 | 33.84079 | -76.65086 | 56863 ft | 251 kts | 259° |
| 2026-04-28 22:19 | 33.79921 | -76.81055 | 57846 ft | 248 kts | 259° |
| 2026-04-28 22:19 | 33.78889 | -76.96240 | 58186 ft | 236 kts | 323° |
| 2026-04-28 22:20 | 33.92372 | -76.90506 | 59128 ft | 260 kts | 9° |
| 2026-04-28 22:20 | 34.06359 | -76.90056 | 59318 ft | 255 kts | 350° |
| 2026-04-28 22:20 | 34.20334 | -76.90935 | 59762 ft | 257 kts | 349° |
| 2026-04-28 22:20 | 34.34673 | -76.91831 | 60158 ft | 259 kts | 349° |
| 2026-04-28 22:21 | 34.49092 | -76.92687 | 60468 ft | 260 kts | 350° |
| 2026-04-28 22:21 | 34.63702 | -76.93553 | 60529 ft | 269 kts | 350° |
| 2026-04-28 22:21 | 34.78393 | -76.94380 | 60911 ft | 266 kts | 350° |
| 2026-04-28 22:21 | 34.87496 | -76.94192 | 60967 ft | 293 kts | 22° |
| 2026-04-28 22:22 | 34.87627 | -76.84387 | 61040 ft | 345 kts | 126° |
| 2026-04-28 22:22 | 34.75714 | -76.65974 | 61201 ft | 347 kts | 129° |
| 2026-04-28 22:23 | 34.63630 | -76.47802 | 61370 ft | 347 kts | 129° |
| 2026-04-28 22:23 | 34.56283 | -76.36766 | 61347 ft | 349 kts | 127° |
| 2026-04-28 22:23 | 34.55424 | -76.34288 | 59811 ft | 236 kts | 129° |
| 2026-04-28 22:24 | 34.55128 | -76.32785 | 53986 ft | 153 kts | 184° |
| 2026-04-28 22:24 | 34.54935 | -76.32124 | 46773 ft | 69 kts | 181° |
| 2026-04-28 22:24 | 34.54778 | -76.31759 | 42120 ft | 39 kts | 38° |
| 2026-04-28 22:24 | 34.54645 | -76.31325 | 38424 ft | 74 kts | 155° |
| 2026-04-28 22:25 | 34.55189 | -76.31041 | 34626 ft | 251 kts | 341° |
| 2026-04-28 22:25 | 34.58285 | -76.33307 | 32162 ft | 302 kts | 295° |
| 2026-04-28 22:25 | 34.58038 | -76.43557 | 30057 ft | 308 kts | 266° |
| 2026-04-28 22:25 | 34.57456 | -76.54419 | 25696 ft | 336 kts | 270° |
| 2026-04-28 22:26 | 34.57894 | -76.65917 | 20668 ft | 340 kts | 283° |
| 2026-04-28 22:26 | 34.60863 | -76.76427 | 16192 ft | 363 kts | 296° |
| 2026-04-28 22:26 | 34.65511 | -76.86972 | 11061 ft | 348 kts | 301° |
| 2026-04-28 22:26 | 34.69343 | -76.93921 | 8365 ft | 336 kts | 306° |
| 2026-04-28 22:27 | 34.69436 | -76.96556 | 7324 ft | 299 kts | 254° |
| 2026-04-28 22:27 | 34.69039 | -76.98557 | 6916 ft | 204 kts | 259° |
| 2026-04-28 22:27 | 34.68729 | -77.00047 | 6833 ft | 165 kts | 260° |
| 2026-04-28 22:27 | 34.68437 | -77.01320 | 6756 ft | 151 kts | 259° |
| 2026-04-28 22:28 | 34.68528 | -77.02241 | 3883 ft | 160 kts | 316° |
| 2026-04-28 22:28 | 34.69410 | -77.03464 | 2233 ft | 185 kts | 311° |
| 2026-04-28 22:28 | 34.70161 | -77.04530 | 2227 ft | 154 kts | 309° |
| 2026-04-28 22:28 | 34.70903 | -77.05605 | 2225 ft | 180 kts | 310° |
| 2026-04-28 22:29 | 34.71843 | -77.06671 | 2119 ft | 193 kts | 328° |
| 2026-04-28 22:29 | 34.73159 | -77.07011 | 2131 ft | 197 kts | 356° |
| 2026-04-28 22:29 | 34.74514 | -77.06746 | 2156 ft | 199 kts | 15° |
| 2026-04-28 22:29 | 34.75769 | -77.06094 | 2294 ft | 195 kts | 24° |
| 2026-04-28 22:30 | 34.76874 | -77.05096 | 2279 ft | 203 kts | 43° |
| 2026-04-28 22:30 | 34.77763 | -77.03755 | 2238 ft | 204 kts | 51° |
| 2026-04-28 22:30 | 34.78671 | -77.02433 | 2235 ft | 203 kts | 46° |
| 2026-04-28 22:30 | 34.79656 | -77.01176 | 2144 ft | 207 kts | 45° |
| 2026-04-28 22:31 | 34.80550 | -77.00016 | 2125 ft | 169 kts | 45° |
| 2026-04-28 22:31 | 34.81307 | -76.99024 | 2118 ft | 153 kts | 45° |
| 2026-04-28 22:31 | 34.82003 | -76.98111 | 2096 ft | 148 kts | 45° |
| 2026-04-28 22:31 | 34.82688 | -76.97215 | 1857 ft | 132 kts | 45° |
| 2026-04-28 22:32 | 34.83295 | -76.96483 | 1683 ft | 117 kts | 42° |
| 2026-04-28 22:32 | 34.83878 | -76.95797 | 1451 ft | 116 kts | 43° |
| 2026-04-28 22:32 | 34.84441 | -76.95101 | 1286 ft | 114 kts | 44° |
| 2026-04-28 22:32 | 34.84970 | -76.94394 | 1120 ft | 112 kts | 48° |
| 2026-04-28 22:33 | 34.85478 | -76.93676 | 952 ft | 111 kts | 48° |
| 2026-04-28 22:33 | 34.86029 | -76.93045 | 832 ft | 107 kts | 44° |
| 2026-04-28 22:33 | 34.86551 | -76.92406 | 746 ft | 106 kts | 45° |
| 2026-04-28 22:33 | 34.87123 | -76.91825 | 582 ft | 107 kts | 41° |
| 2026-04-28 22:34 | 34.87665 | -76.91209 | 418 ft | 104 kts | 41° |
| 2026-04-28 22:34 | 34.88151 | -76.90601 | 322 ft | 101 kts | 45° |
| 2026-04-28 22:34 | 34.88647 | -76.89986 | 215 ft | 100 kts | 47° |
| 2026-04-28 22:34 | 34.89125 | -76.89373 | 72 ft | 101 kts | 47° |
| 2026-04-28 22:35 | 34.89537 | -76.88867 | 36 ft | 64 kts | 46° |
| 2026-04-28 22:35 | 34.89775 | -76.88572 | 33 ft | 34 kts | 45° |
| 2026-04-28 22:35 | 34.89927 | -76.88383 | 33 ft | 29 kts | 46° |
| 2026-04-28 22:35 | 34.90068 | -76.88206 | 31 ft | 31 kts | 46° |
| 2026-04-28 22:36 | 34.90235 | -76.88013 | 30 ft | 35 kts | 45° |
| 2026-04-28 22:36 | 34.90445 | -76.88103 | 33 ft | 40 kts | 2° |
| 2026-04-28 22:36 | 34.90727 | -76.88101 | 32 ft | 41 kts | 4° |
| 2026-04-28 22:36 | 34.90816 | -76.87828 | 32 ft | 40 kts | 91° |
| 2026-04-28 22:37 | 34.90811 | -76.87487 | 31 ft | 41 kts | 89° |
| 2026-04-28 22:37 | 34.90812 | -76.87139 | 30 ft | 41 kts | 94° |
| 2026-04-28 22:37 | 34.90808 | -76.86798 | 30 ft | 33 kts | 89° |
| 2026-04-28 22:37 | 34.90832 | -76.86645 | 30 ft | 8 kts | 256° |
| 2026-04-28 22:38 | 34.90826 | -76.86649 | 30 ft | 0 kts | 150° |